Latest Coastal Weather Observations for Friendly Beaches

IDT60701

Issued at 7:02 am EDT Tuesday 7 February 2023 (issued every 10 minutes, with the page automatically refreshed every 10 minutes)

About coastal observations | Map of coastal stations | Coastal observations for TAS | Marine services | Other Formats
Station Details ID: 092114 Name: FRIENDLY BEACHES Lat: -42.00 Lon: 148.28 Height: 55.0 m
Data from the previous 72 hours. | See also: Recent months at Friendly Beaches
Date/Time
EDT
Wind Sea
Height
m
Swell Vis
km
Cloud Weather Temp
°C
Press
MSL
hPa
Rain since
9am
mm
Dir  Spd
kts
Gust
kts
Height
m
Period
s
Dir
07/07:00am W 3 5 - - - - - - - 12.0 1015.8 0.0
07/06:30am WSW 4 6 - - - - - - - 11.2 1015.5 0.0
07/06:00am W 4 5 - - - - - - - 11.2 1015.2 0.0
07/05:30am W 4 5 - - - - - - - 11.4 1014.8 0.0
07/05:00am WNW 5 6 - - - - - - - 11.9 1014.8 0.0
07/04:30am W 5 6 - - - - - - - 12.1 1014.7 0.0
07/04:00am WNW 4 8 - - - - - - - 12.9 1014.7 0.0
07/03:30am WSW 6 10 - - - - - - - 14.1 1014.7 0.0
07/03:00am WSW 5 9 - - - - - - - 13.9 1014.7 0.0
07/02:30am SW 7 12 - - - - - - - 13.9 1014.7 0.0
07/02:00am SW 9 16 - - - - - - - 14.5 1014.7 0.0
07/01:30am SW 8 13 - - - - - - - 14.5 1014.8 0.0
07/01:00am SW 7 11 - - - - - - - 14.7 1015.0 0.0
07/12:30am SW 7 15 - - - - - - - 15.0 1014.7 0.0
07/12:00am WSW 5 9 - - - - - - - 14.8 1014.6 0.0
 
Date/Time
EDT
Wind Sea
Height
m
Swell Vis
km
Cloud Weather Temp
°C
Press
MSL
hPa
Rain since
9am
mm
Dir  Spd
kts
Gust
kts
Height
m
Period
s
Dir
06/11:30pm WSW 7 11 - - - - - - - 14.3 1014.5 0.0
06/11:00pm SW 5 7 - - - - - - - 14.3 1014.5 0.0
06/10:30pm S 3 3 - - - - - - - 14.6 1014.3 0.0
06/10:00pm S 2 5 - - - - - - - 14.9 1014.3 0.0
06/09:30pm SE 4 6 - - - - - - - 15.4 1014.0 0.0
06/09:00pm ESE 5 7 - - - - - - - 15.8 1013.4 0.0
06/08:30pm SE 4 5 - - - - - - - 16.4 1013.2 0.0
06/08:00pm ESE 4 5 - - - - - - - 17.4 1013.0 0.0
06/07:30pm NE 3 5 - - - - - - - 18.8 1012.7 0.0
06/07:00pm NE 4 7 - - - - - - - 19.9 1012.4 0.0
06/06:30pm NE 6 8 - - - - - - - 20.9 1012.2 0.0
06/06:00pm NNE 8 13 - - - - - - - 20.5 1012.0 0.0
06/05:30pm NNE 8 13 - - - - - - - 21.6 1011.9 0.0
06/05:00pm NNE 10 16 - - - - - - - 22.1 1011.9 0.0
06/04:30pm NNE 11 18 - - - - - - - 21.9 1011.9 0.0
06/04:00pm NNE 11 16 - - - - - - - 22.6 1012.1 0.0
06/03:30pm NNE 11 18 - - - - - - - 22.2 1012.3 0.0
06/03:00pm NNE 10 18 - - - - - - - 22.6 1012.5 0.0
06/02:30pm NNE 9 16 - - - - - - - 23.5 1012.7 0.0
06/02:00pm NNE 12 18 - - - - - - - 22.7 1012.8 0.0
06/01:30pm NNE 10 17 - - - - - - - 22.7 1013.0 0.0
06/01:00pm NE 10 15 - - - - - - - 22.1 1013.3 0.0
06/12:30pm NE 9 14 - - - - - - - 21.9 1013.4 0.0
06/12:00pm NE 9 14 - - - - - - - 21.3 1013.6 0.0
06/11:30am NE 7 11 - - - - - - - 21.7 1013.8 0.0
06/11:00am W 3 6 - - - - - - - 21.3 1013.7 0.0
06/10:30am WSW 5 8 - - - - - - - 20.3 1013.8 0.0
06/10:00am WSW 4 8 - - - - - - - 19.4 1013.7 0.0
06/09:30am WNW 5 9 - - - - - - - 18.2 1013.6 0.0
06/09:00am W 6 12 - - - - - - - 17.3 1014.1 0.0
06/08:30am WSW 4 5 - - - - - - - 15.2 1014.2 0.0
06/08:00am W 3 5 - - - - - - - 15.1 1013.7 0.0
06/07:30am W 3 4 - - - - - - - 13.0 1013.3 0.0
06/07:00am WNW 3 5 - - - - - - - 11.6 1013.5 0.0
06/06:30am WNW 4 5 - - - - - - - 11.4 1013.1 0.0
06/06:00am W 6 9 - - - - - - - 11.8 1012.9 0.0
06/05:30am W 5 7 - - - - - - - 12.0 1012.7 0.0
06/05:00am W 4 6 - - - - - - - 12.3 1012.2 0.0
06/04:30am W 4 5 - - - - - - - 12.4 1012.0 0.0
06/04:00am W 4 5 - - - - - - - 12.4 1011.9 0.0
06/03:30am W 5 7 - - - - - - - 12.9 1012.1 0.0
06/03:00am W 5 6 - - - - - - - 12.8 1012.1 0.0
06/02:30am WNW 5 5 - - - - - - - 13.1 1012.3 0.0
06/02:00am WNW 4 5 - - - - - - - 13.2 1012.3 0.0
06/01:30am W 3 5 - - - - - - - 13.1 1012.4 0.0
06/01:00am W 3 4 - - - - - - - 13.4 1012.6 0.0
06/12:30am W 3 4 - - - - - - - 13.7 1012.9 0.0
06/12:00am SSE 3 5 - - - - - - - 14.4 1012.9 0.0
 
Date/Time
EDT
Wind Sea
Height
m
Swell Vis
km
Cloud Weather Temp
°C
Press
MSL
hPa
Rain since
9am
mm
Dir  Spd
kts
Gust
kts
Height
m
Period
s
Dir
05/11:30pm SE 5 7 - - - - - - - 14.5 1012.9 0.0
05/11:00pm SE 6 8 - - - - - - - 14.5 1013.1 0.0
05/10:30pm ESE 5 7 - - - - - - - 14.7 1013.3 0.0
05/10:00pm ESE 6 8 - - - - - - - 15.2 1013.3 0.0
05/09:30pm E 6 8 - - - - - - - 15.4 1013.0 0.0
05/09:00pm E 5 6 - - - - - - - 15.6 1012.5 0.0
05/08:30pm E 4 6 - - - - - - - 15.9 1012.5 0.0
05/08:00pm ENE 4 7 - - - - - - - 16.8 1012.2 0.0
05/07:30pm ENE 5 8 - - - - - - - 18.3 1012.0 0.0
05/07:00pm ENE 6 9 - - - - - - - 19.1 1012.0 0.0
05/06:30pm NE 8 12 - - - - - - - 19.6 1011.6 0.0
05/06:00pm NE 9 14 - - - - - - - 20.1 1011.8 0.0
05/05:30pm NE 9 13 - - - - - - - 20.4 1011.8 0.0
05/05:00pm NE 10 16 - - - - - - - 21.2 1011.6 0.0
05/04:30pm NE 10 17 - - - - - - - 20.9 1011.5 0.0
05/04:00pm NE 9 15 - - - - - - - 21.3 1011.7 0.0
05/03:30pm NE 7 13 - - - - - - - 21.6 1011.7 0.0
05/03:00pm NE 9 15 - - - - - - - 21.7 1011.7 0.0
05/02:30pm NE 8 13 - - - - - - - 21.8 1011.8 0.0
05/02:00pm NE 10 14 - - - - - - - 21.3 1011.6 0.0
05/01:30pm NE 11 16 - - - - - - - 21.2 1011.6 0.0
05/01:00pm NE 7 13 - - - - - - - 22.6 1011.4 0.0
05/12:30pm SW 3 8 - - - - - - - 22.9 1011.2 0.0
05/12:00pm W 6 10 - - - - - - - 21.4 1011.3 0.0
05/11:30am WSW 5 10 - - - - - - - 20.7 1011.2 0.0
05/11:00am SW 8 13 - - - - - - - 19.8 1011.0 0.0
05/10:30am WSW 7 12 - - - - - - - 19.2 1011.1 0.0
05/10:00am WSW 8 12 - - - - - - - 17.5 1010.9 0.0
05/09:30am WSW 7 12 - - - - - - - 17.3 1010.5 0.0
05/09:00am WSW 9 15 - - - - - - - 16.3 1009.9 9.0
05/08:30am WSW 8 13 - - - - - - - 15.4 1009.5 9.0
05/08:00am WSW 8 13 - - - - - - - 14.6 1008.7 9.0
05/07:30am WSW 8 13 - - - - - - - 13.7 1008.3 9.0
05/07:00am W 6 9 - - - - - - - 12.5 1008.0 9.0
05/06:30am WSW 6 11 - - - - - - - 12.9 1007.5 9.0
05/06:00am WSW 8 15 - - - - - - - 13.0 1006.6 9.0
05/05:30am WSW 10 17 - - - - - - - 13.7 1006.0 9.0
05/05:00am WSW 7 12 - - - - - - - 13.8 1005.7 9.0
05/04:30am WSW 9 17 - - - - - - - 14.0 1005.2 9.0
05/04:00am WSW 11 18 - - - - - - - 14.4 1005.1 9.0
05/03:30am WSW 7 11 - - - - - - - 14.4 1005.1 9.0
05/03:00am WSW 7 11 - - - - - - - 14.6 1005.0 9.0
05/02:30am WSW 6 10 - - - - - - - 14.5 1004.3 9.0
05/02:00am WSW 7 10 - - - - - - - 14.4 1003.7 9.0
05/01:30am WSW 9 16 - - - - - - - 14.5 1003.2 9.0
05/01:00am WSW 10 18 - - - - - - - 14.4 1002.5 9.0
05/12:30am WSW 11 20 - - - - - - - 14.3 1002.1 9.0
05/12:00am WSW 9 18 - - - - - - - 14.2 1001.9 9.0
 
Date/Time
EDT
Wind Sea
Height
m
Swell Vis
km
Cloud Weather Temp
°C
Press
MSL
hPa
Rain since
9am
mm
Dir  Spd
kts
Gust
kts
Height
m
Period
s
Dir
04/11:30pm WSW 9 16 - - - - - - - 14.3 1001.4 9.0
04/11:00pm WSW 9 16 - - - - - - - 14.3 1001.2 9.0
04/10:30pm WSW 8 13 - - - - - - - 14.3 1001.3 9.0
04/10:00pm WSW 7 9 - - - - - - - 14.0 1001.1 9.0
04/09:30pm WSW 7 11 - - - - - - - 14.1 1000.8 9.0
04/09:00pm SW 5 9 - - - - - - - 14.1 1000.4 9.0
04/08:30pm SW 7 11 - - - - - - - 14.1 999.8 9.0
04/08:00pm SW 7 11 - - - - - - - 14.4 999.3 9.0
04/07:30pm SSW 10 19 - - - - - - - 14.3 998.8 9.0
04/07:00pm SSW 12 17 - - - - - - - 14.5 998.0 9.0
04/06:30pm S 8 15 - - - - - - - 15.0 997.3 8.8
04/06:00pm SSW 8 14 - - - - - - Recent precip. 15.0 997.0 8.8
04/05:30pm WSW 9 15 - - - - - - - 14.7 996.6 8.8
04/05:00pm WSW 7 11 - - - - - - - 14.4 996.5 7.8
04/04:30pm SSW 8 12 - - - - - - - 15.5 996.2 6.0
04/04:00pm SW 8 12 - - - - - - - 14.4 995.9 5.8
04/03:30pm SW 7 11 - - - - - - - 16.1 995.7 4.4
04/03:00pm WSW 5 9 - - - - - - Rain 15.3 995.7 4.4
04/02:30pm WSW 6 12 - - - - - - - 15.0 995.5 4.0
04/02:00pm WSW 6 10 - - - - - - - 14.9 995.4 3.2
04/01:30pm WSW 3 5 - - - - - - - 14.5 995.3 3.0
04/01:00pm W 8 14 - - - - - - - 14.7 995.6 2.0
04/12:30pm W 7 11 - - - - - - - 14.2 995.2 1.8
04/12:00pm W 6 10 - - - - - - Rain 13.9 995.4 1.6
04/11:30am W 4 7 - - - - - - - 14.0 995.5 1.4
04/11:00am W 5 8 - - - - - - - 13.5 995.5 1.0
04/10:30am W 4 9 - - - - - - - 12.6 995.7 0.6
04/10:00am W 7 13 - - - - - - - 12.1 995.6 0.4
04/09:30am W 4 6 - - - - - - - 13.3 995.5 0.0
04/09:00am W 5 8 - - - - - - - 14.2 995.2 0.0
04/08:30am WSW 2 6 - - - - - - - 14.7 995.0 0.0
04/08:00am NNW 3 6 - - - - - - - 15.5 994.7 0.0
04/07:30am N 3 5 - - - - - - - 12.9 994.4 0.0

Other formats

Comma delimited format used in spreadsheet applications
http://www.bom.gov.au/fwo/IDT60701/IDT60701.94987.axf

JavaScript Object Notation format (JSON) in row-major order
http://www.bom.gov.au/fwo/IDT60701/IDT60701.94987.json

Data quality

Most of these data are generated automatically and are frequently updated. Quality checks on data are not normally performed. It is possible for incorrect values to appear. Refer to information at About Latest Weather Observations and please check the disclaimer before using these data.